Charles W. Baker (2M8)
Millington, TN
Field Elevation: 247
Lat: 35°16.74N  Long: 89°55.89W
CTAF/Unicom Freq: 122.8000
   
     For Weather-by-Phone, call 901-873-0903
Weather Advisories
12/26/2014 16:23 Z
Altimeter 30.26" Hg
Wind 170° @ 5 KT
Gusts --
Visibility 10 SM
Ceiling CLR
Temperature 10° C (50° F)
Dewpoint 5° C (41° F)
Relative Humidity 69%
Density Altitude --
Condensation Altitude 2,700 feet
Wind Chill 9° C (48° F)
  Wind and Runways
Indicated Runway = 18
History
 
 
More Info
All DigiWx sites map
NOAA Forecast
 
Airport IQ 5010
(M01) General Dewitt Spain Airport
(3M3) Collegedale Muni
 
about DigiWx
 
FAA Disclaimer: The data displayed is for advisory purposes only and is not to be used for flight planning or operations. For official data, please call 901-873-0903 to hear the current automated AWOS voice message.
  METAR 2M8 261623Z AUTO 17005KT 10SM CLR 10/05 A3026